Time;durP1;ratioP1;P1;durP2;ratioP2;P2;SDS_P1;SDS_P2;PMS_P1;PMS_P2;Temp;Humidity;BMP_temperature;BMP_pressure;BME280_temperature;BME280_humidity;BME280_pressure;Samples;Min_cycle;Max_cycle;Signal;HPM_P1;HPM_P2
2022/11/02 00:01:49;;;;;;;43.30;24.73;;;;;;;;;;743755;189;919446;-69
2022/11/02 00:04:15;;;;;;;39.07;22.30;;;;;;;;;;737706;189;918881;-69
2022/11/02 00:06:42;;;;;;;40.53;23.62;;;;;;;;;;737280;189;918482;-69
2022/11/02 00:09:07;;;;;;;41.50;21.20;;;;;;;;;;741379;190;630466;-68
2022/11/02 00:11:33;;;;;;;41.90;22.80;;;;;;;;;;755132;186;625823;-68
2022/11/02 00:13:59;;;;;;;42.23;26.13;;;;;;;;;;743648;189;635896;-68
2022/11/02 00:16:24;;;;;;;35.07;23.90;;;;;;;;;;733159;190;816682;-68
2022/11/02 00:18:50;;;;;;;44.07;25.17;;;;;;;;;;744254;189;921174;-68
2022/11/02 00:21:16;;;;;;;41.97;23.37;;;;;;;;;;739681;189;816595;-69
2022/11/02 00:23:42;;;;;;;45.23;25.20;;;;;;;;;;735872;189;920670;-68
2022/11/02 00:26:08;;;;;;;41.80;24.93;;;;;;;;;;737609;190;918666;-69
2022/11/02 00:28:34;;;;;;;39.07;24.10;;;;;;;;;;738709;189;818162;-70
2022/11/02 00:31:00;;;;;;;46.63;26.13;;;;;;;;;;737617;189;919374;-68
2022/11/02 00:33:26;;;;;;;46.80;26.30;;;;;;;;;;736826;189;915278;-69
2022/11/02 00:35:51;;;;;;;42.90;24.60;;;;;;;;;;750202;188;917447;-67
2022/11/02 00:38:17;;;;;;;45.00;25.20;;;;;;;;;;745609;188;815349;-68
2022/11/02 00:40:43;;;;;;;42.15;24.70;;;;;;;;;;741827;188;815927;-69
2022/11/02 00:43:09;;;;;;;45.37;26.40;;;;;;;;;;742855;189;815396;-68
2022/11/02 00:45:35;;;;;;;36.13;24.00;;;;;;;;;;738428;189;921216;-69
2022/11/02 00:48:01;;;;;;;38.77;23.77;;;;;;;;;;739256;189;814982;-68
2022/11/02 00:50:27;;;;;;;39.27;22.73;;;;;;;;;;744797;189;615132;-69
2022/11/02 00:52:52;;;;;;;43.60;24.30;;;;;;;;;;745972;186;631315;-69
2022/11/02 00:55:18;;;;;;;39.60;24.10;;;;;;;;;;741478;188;814757;-68
2022/11/02 00:57:44;;;;;;;46.00;27.30;;;;;;;;;;741802;189;915989;-70
2022/11/02 01:00:11;;;;;;;47.43;26.93;;;;;;;;;;739496;188;917033;-68
2022/11/02 01:02:36;;;;;;;45.90;29.30;;;;;;;;;;742494;189;768907;-67
2022/11/02 01:05:02;;;;;;;47.03;28.00;;;;;;;;;;736124;189;919755;-67
2022/11/02 01:07:28;;;;;;;48.57;29.20;;;;;;;;;;741025;189;918310;-68
2022/11/02 01:09:54;;;;;;;42.20;26.40;;;;;;;;;;734587;189;919551;-68
2022/11/02 01:12:20;;;;;;;46.10;27.80;;;;;;;;;;743502;188;817008;-68
2022/11/02 01:14:46;;;;;;;47.93;27.80;;;;;;;;;;735968;189;917938;-68
2022/11/02 01:17:11;;;;;;;53.40;27.20;;;;;;;;;;735160;189;918913;-68
2022/11/02 01:19:37;;;;;;;45.20;28.00;;;;;;;;;;736231;189;920585;-68
2022/11/02 01:22:03;;;;;;;51.93;29.10;;;;;;;;;;743900;187;918877;-68
2022/11/02 01:24:29;;;;;;;47.43;27.80;;;;;;;;;;740783;188;816770;-69
2022/11/02 01:26:55;;;;;;;52.13;27.43;;;;;;;;;;738762;189;855135;-68
2022/11/02 01:29:21;;;;;;;50.13;28.03;;;;;;;;;;741216;188;915344;-68
2022/11/02 01:31:47;;;;;;;43.23;25.07;;;;;;;;;;742578;189;916596;-68
2022/11/02 01:34:12;;;;;;;42.03;25.70;;;;;;;;;;739076;188;879628;-68
2022/11/02 01:36:38;;;;;;;46.00;23.33;;;;;;;;;;744418;188;634553;-69
2022/11/02 01:39:04;;;;;;;35.77;23.30;;;;;;;;;;744083;189;623490;-68
2022/11/02 01:41:30;;;;;;;35.10;21.90;;;;;;;;;;735721;189;918696;-69
2022/11/02 01:43:57;;;;;;;36.85;24.35;;;;;;;;;;734909;189;918738;-68
2022/11/02 01:46:22;;;;;;;42.63;23.50;;;;;;;;;;742221;189;712730;-69
2022/11/02 01:48:50;;;;;;;42.80;27.23;;;;;;;;;;737447;189;819293;-69
2022/11/02 01:51:18;;;;;;;38.80;25.03;;;;;;;;;;735443;189;918401;-70
2022/11/02 01:53:44;;;;;;;45.53;25.10;;;;;;;;;;735303;189;918531;-68
2022/11/02 01:56:10;;;;;;;41.43;27.27;;;;;;;;;;741018;189;817594;-69
2022/11/02 01:58:36;;;;;;;56.00;28.83;;;;;;;;;;735171;189;919361;-68
2022/11/02 02:01:02;;;;;;;63.80;27.10;;;;;;;;;;735531;189;817105;-69
2022/11/02 02:03:27;;;;;;;42.30;26.13;;;;;;;;;;742470;187;916014;-68
2022/11/02 02:05:53;;;;;;;54.27;30.33;;;;;;;;;;737809;189;918590;-68
2022/11/02 02:08:19;;;;;;;51.67;30.63;;;;;;;;;;737615;189;918601;-68
2022/11/02 02:10:45;;;;;;;53.20;29.27;;;;;;;;;;740374;189;919193;-69
2022/11/02 02:13:11;;;;;;;57.27;30.97;;;;;;;;;;736072;188;918977;-68
2022/11/02 02:15:38;;;;;;;51.67;30.45;;;;;;;;;;735620;188;912190;-68
2022/11/02 02:18:03;;;;;;;58.93;30.50;;;;;;;;;;735020;189;921963;-69
2022/11/02 02:20:45;;;;;;;54.90;29.13;;;;;;;;;;739545;189;920058;-68
2022/11/02 02:23:26;;;;;;;52.50;28.90;;;;;;;;;;745679;189;918995;-68
2022/11/02 02:25:58;;;;;;;54.73;30.37;;;;;;;;;;736328;188;918038;-68
2022/11/02 02:28:39;;;;;;;55.60;30.73;;;;;;;;;;739339;188;919429;-68
2022/11/02 02:31:07;;;;;;;58.93;30.50;;;;;;;;;;733789;188;919309;-68
2022/11/02 02:33:34;;;;;;;55.63;31.57;;;;;;;;;;743565;188;630362;-69
2022/11/02 02:36:02;;;;;;;56.70;31.70;;;;;;;;;;745009;188;633107;-68
2022/11/02 02:38:28;;;;;;;50.70;30.13;;;;;;;;;;744581;188;918621;-68
2022/11/02 02:40:55;;;;;;;61.83;29.70;;;;;;;;;;739615;187;916960;-68
2022/11/02 02:43:21;;;;;;;51.63;27.42;;;;;;;;;;739986;189;928556;-69
2022/11/02 02:45:50;;;;;;;65.73;31.43;;;;;;;;;;739984;189;916272;-67
2022/11/02 02:48:18;;;;;;;57.13;30.77;;;;;;;;;;738471;189;917317;-69
2022/11/02 02:50:47;;;;;;;59.57;28.23;;;;;;;;;;734976;190;918908;-69
2022/11/02 02:53:13;;;;;;;55.73;31.37;;;;;;;;;;735618;190;921253;-69
2022/11/02 02:55:39;;;;;;;62.00;31.43;;;;;;;;;;740262;189;886251;-68
2022/11/02 02:58:05;;;;;;;69.47;30.70;;;;;;;;;;738190;189;917819;-69
2022/11/02 03:00:31;;;;;;;46.50;29.00;;;;;;;;;;739427;188;815318;-69
2022/11/02 03:02:59;;;;;;;56.93;27.30;;;;;;;;;;739224;189;919155;-68
2022/11/02 03:05:26;;;;;;;68.67;29.77;;;;;;;;;;738048;189;714613;-69
2022/11/02 03:07:52;;;;;;;63.80;30.70;;;;;;;;;;735503;189;918725;-68
2022/11/02 03:10:20;;;;;;;57.53;29.53;;;;;;;;;;739226;189;915609;-68
2022/11/02 03:12:51;;;;;;;46.47;26.90;;;;;;;;;;739421;188;919210;-69
2022/11/02 03:15:19;;;;;;;62.97;30.27;;;;;;;;;;736382;189;919060;-69
2022/11/02 03:17:50;;;;;;;52.27;28.17;;;;;;;;;;737211;188;920554;-68
2022/11/02 03:20:22;;;;;;;57.63;28.60;;;;;;;;;;738218;188;920643;-68
2022/11/02 03:22:47;;;;;;;49.33;26.63;;;;;;;;;;741037;189;915932;-68
2022/11/02 03:25:13;;;;;;;54.87;28.10;;;;;;;;;;739262;185;919255;-69
2022/11/02 03:27:39;;;;;;;51.30;26.17;;;;;;;;;;739890;186;919550;-68
2022/11/02 03:30:06;;;;;;;54.20;30.77;;;;;;;;;;741662;188;1016297;-68
2022/11/02 03:32:36;;;;;;;47.87;27.17;;;;;;;;;;744083;188;919627;-67
2022/11/02 03:35:02;;;;;;;58.57;29.00;;;;;;;;;;739736;189;817921;-67
2022/11/02 03:37:29;;;;;;;52.07;29.70;;;;;;;;;;737289;188;914868;-68
2022/11/02 03:39:54;;;;;;;49.50;28.57;;;;;;;;;;743088;189;917405;-68
2022/11/02 03:42:20;;;;;;;48.97;27.23;;;;;;;;;;735342;189;919356;-69
2022/11/02 03:44:46;;;;;;;49.73;27.20;;;;;;;;;;737183;189;813726;-68
2022/11/02 03:47:12;;;;;;;56.60;28.57;;;;;;;;;;744514;189;822648;-69
2022/11/02 03:49:38;;;;;;;56.10;30.25;;;;;;;;;;739390;188;923436;-68
2022/11/02 03:52:04;;;;;;;60.77;28.67;;;;;;;;;;738152;188;905443;-68
2022/11/02 03:54:47;;;;;;;48.57;27.67;;;;;;;;;;736282;189;890383;-67
2022/11/02 03:57:13;;;;;;;61.07;28.83;;;;;;;;;;735385;189;919200;-68
2022/11/02 03:59:39;;;;;;;54.20;28.93;;;;;;;;;;739841;189;918071;-68
2022/11/02 04:02:05;;;;;;;62.13;31.33;;;;;;;;;;736650;189;921104;-68
2022/11/02 04:04:31;;;;;;;60.63;30.87;;;;;;;;;;734526;189;918897;-68
2022/11/02 04:06:57;;;;;;;60.90;31.40;;;;;;;;;;739566;189;915010;-68
2022/11/02 04:09:22;;;;;;;57.80;31.37;;;;;;;;;;734698;189;914333;-68
2022/11/02 04:19:26;;;;;;;56.40;29.37;;;;;;;;;;739473;189;918486;-67
2022/11/02 04:26:54;;;;;;;57.35;29.85;;;;;;;;;;739116;187;918354;-68
2022/11/02 04:29:20;;;;;;;58.40;30.63;;;;;;;;;;752306;185;918369;-68
2022/11/02 04:31:46;;;;;;;58.77;29.57;;;;;;;;;;744790;189;621269;-68
2022/11/02 04:34:12;;;;;;;61.13;29.53;;;;;;;;;;740706;189;632644;-68
2022/11/02 04:36:38;;;;;;;58.23;28.93;;;;;;;;;;741932;189;849041;-67
2022/11/02 04:39:03;;;;;;;53.53;30.03;;;;;;;;;;735448;189;920739;-67
2022/11/02 04:44:01;;;;;;;58.37;30.80;;;;;;;;;;741074;189;919021;-68
2022/11/02 04:46:27;;;;;;;47.77;28.10;;;;;;;;;;736276;189;919503;-68
2022/11/02 04:48:53;;;;;;;53.70;27.07;;;;;;;;;;733465;189;920235;-67
2022/11/02 04:51:19;;;;;;;59.93;30.37;;;;;;;;;;735209;189;919788;-67
2022/11/02 04:53:44;;;;;;;57.20;28.50;;;;;;;;;;741581;189;918011;-67
2022/11/02 04:56:10;;;;;;;58.27;29.23;;;;;;;;;;736781;189;919157;-68
2022/11/02 04:58:36;;;;;;;55.10;30.80;;;;;;;;;;737626;189;918673;-67
2022/11/02 05:01:08;;;;;;;65.37;30.30;;;;;;;;;;740258;189;857885;-68
2022/11/02 05:03:34;;;;;;;53.07;28.50;;;;;;;;;;736911;189;920557;-68
2022/11/02 05:06:00;;;;;;;64.47;31.57;;;;;;;;;;735395;189;821273;-68
2022/11/02 05:08:25;;;;;;;53.75;28.98;;;;;;;;;;735769;189;918027;-68
2022/11/02 05:10:55;;;;;;;56.73;28.33;;;;;;;;;;739911;189;820529;-68
2022/11/02 05:13:20;;;;;;;54.20;30.83;;;;;;;;;;736963;189;814629;-69
2022/11/02 05:15:46;;;;;;;56.87;30.90;;;;;;;;;;735137;189;918847;-67
2022/11/02 05:18:12;;;;;;;58.23;30.23;;;;;;;;;;740897;189;816716;-68
2022/11/02 05:20:38;;;;;;;70.45;31.27;;;;;;;;;;735835;189;919268;-67
2022/11/02 05:23:05;;;;;;;59.33;31.07;;;;;;;;;;736417;189;917872;-68
2022/11/02 05:25:29;;;;;;;61.00;30.92;;;;;;;;;;739772;189;923018;-67
2022/11/02 05:27:55;;;;;;;66.70;30.23;;;;;;;;;;735593;189;919149;-68
2022/11/02 05:30:21;;;;;;;62.73;29.30;;;;;;;;;;735593;188;917843;-67
2022/11/02 05:32:47;;;;;;;62.40;30.37;;;;;;;;;;737651;187;914855;-68
2022/11/02 05:35:13;;;;;;;57.87;31.10;;;;;;;;;;739602;189;920418;-68
2022/11/02 05:37:39;;;;;;;53.57;27.60;;;;;;;;;;737734;189;913190;-67
2022/11/02 05:40:05;;;;;;;64.07;29.57;;;;;;;;;;737116;189;918855;-67
2022/11/02 05:42:31;;;;;;;49.20;29.00;;;;;;;;;;742638;189;811796;-68
2022/11/02 05:44:58;;;;;;;56.80;29.12;;;;;;;;;;735360;189;818847;-68
2022/11/02 05:47:22;;;;;;;54.60;28.50;;;;;;;;;;741169;189;635999;-68
2022/11/02 05:49:48;;;;;;;61.97;30.20;;;;;;;;;;743793;188;1017049;-68
2022/11/02 05:52:14;;;;;;;64.07;29.70;;;;;;;;;;739865;188;814647;-67
2022/11/02 05:54:40;;;;;;;64.00;28.40;;;;;;;;;;743914;188;814362;-68
2022/11/02 05:57:06;;;;;;;57.53;29.93;;;;;;;;;;739429;188;873912;-67
2022/11/02 05:59:32;;;;;;;75.67;29.17;;;;;;;;;;740276;189;914121;-68
2022/11/02 06:01:58;;;;;;;82.27;29.97;;;;;;;;;;735312;189;918602;-68
2022/11/02 06:04:23;;;;;;;59.05;26.10;;;;;;;;;;736502;189;923147;-68
2022/11/02 06:06:49;;;;;;;75.97;28.97;;;;;;;;;;740714;189;916087;-68
2022/11/02 06:09:15;;;;;;;69.90;27.50;;;;;;;;;;735226;189;919484;-69
2022/11/02 06:11:43;;;;;;;67.30;26.60;;;;;;;;;;734652;189;918882;-68
2022/11/02 06:14:09;;;;;;;83.50;27.70;;;;;;;;;;741694;189;915451;-68
2022/11/02 06:16:35;;;;;;;78.57;28.33;;;;;;;;;;737491;185;908466;-68
2022/11/02 06:19:01;;;;;;;59.33;24.33;;;;;;;;;;735075;189;918710;-69
2022/11/02 06:21:27;;;;;;;80.80;26.33;;;;;;;;;;738461;188;915347;-69
2022/11/02 06:23:53;;;;;;;94.00;29.47;;;;;;;;;;743498;189;919981;-68
2022/11/02 06:26:19;;;;;;;97.90;27.83;;;;;;;;;;737677;189;917765;-68
2022/11/02 06:28:45;;;;;;;80.20;25.10;;;;;;;;;;735707;189;918995;-68
2022/11/02 06:31:10;;;;;;;127.67;27.73;;;;;;;;;;741889;189;818757;-68
2022/11/02 06:33:36;;;;;;;92.87;27.67;;;;;;;;;;737487;188;920553;-68
2022/11/02 06:36:02;;;;;;;83.90;28.60;;;;;;;;;;736813;189;818012;-67
2022/11/02 06:38:28;;;;;;;80.33;29.53;;;;;;;;;;739860;189;918824;-68
2022/11/02 06:40:55;;;;;;;104.18;28.92;;;;;;;;;;734971;189;918922;-68
2022/11/02 06:43:21;;;;;;;106.87;28.10;;;;;;;;;;736682;189;816803;-68
2022/11/02 06:45:47;;;;;;;118.33;27.30;;;;;;;;;;740055;189;618957;-68
2022/11/02 06:48:13;;;;;;;136.80;31.10;;;;;;;;;;739414;189;873599;-69
2022/11/02 06:50:38;;;;;;;65.47;25.60;;;;;;;;;;739791;189;750364;-68
2022/11/02 06:53:04;;;;;;;49.05;23.83;;;;;;;;;;738561;188;871047;-66
2022/11/02 06:55:30;;;;;;;90.50;25.97;;;;;;;;;;742629;186;919668;-68
2022/11/02 06:57:56;;;;;;;43.13;23.50;;;;;;;;;;738483;188;919872;-67
2022/11/02 07:00:22;;;;;;;95.57;25.33;;;;;;;;;;737311;189;912473;-67
2022/11/02 07:02:54;;;;;;;91.10;27.20;;;;;;;;;;740832;189;860982;-68
2022/11/02 07:05:19;;;;;;;62.17;26.10;;;;;;;;;;747753;188;817098;-68
2022/11/02 07:07:45;;;;;;;59.70;24.13;;;;;;;;;;740886;188;819409;-68
2022/11/02 07:10:12;;;;;;;58.33;23.17;;;;;;;;;;735408;189;919802;-67
2022/11/02 07:12:37;;;;;;;73.87;25.03;;;;;;;;;;741762;189;816503;-69
2022/11/02 07:15:03;;;;;;;51.43;25.07;;;;;;;;;;737696;189;916672;-68
2022/11/02 07:17:29;;;;;;;77.23;24.63;;;;;;;;;;741296;189;816432;-67
2022/11/02 07:19:55;;;;;;;84.00;24.57;;;;;;;;;;743032;189;723364;-68
2022/11/02 07:22:21;;;;;;;64.53;26.57;;;;;;;;;;736374;189;943025;-68
2022/11/02 07:24:46;;;;;;;51.57;23.07;;;;;;;;;;736104;190;855720;-68
2022/11/02 07:27:13;;;;;;;60.80;23.73;;;;;;;;;;740131;189;919397;-68
2022/11/02 07:29:38;;;;;;;63.23;25.03;;;;;;;;;;739559;189;920455;-68
2022/11/02 07:32:06;;;;;;;42.70;21.80;;;;;;;;;;740062;187;818930;-68
2022/11/02 07:34:30;;;;;;;76.10;25.87;;;;;;;;;;735670;189;852440;-68
2022/11/02 07:36:56;;;;;;;66.83;24.60;;;;;;;;;;740131;189;917956;-68
2022/11/02 07:39:22;;;;;;;87.27;26.67;;;;;;;;;;738849;189;917991;-68
2022/11/02 07:41:48;;;;;;;62.27;26.70;;;;;;;;;;734188;189;918700;-67
2022/11/02 07:44:14;;;;;;;57.93;24.90;;;;;;;;;;739961;189;901288;-69
2022/11/02 07:46:40;;;;;;;76.23;25.80;;;;;;;;;;736983;189;918979;-68
2022/11/02 07:49:06;;;;;;;125.40;27.00;;;;;;;;;;735459;189;914842;-68
2022/11/02 07:51:32;;;;;;;103.87;29.80;;;;;;;;;;740190;189;919013;-69
2022/11/02 07:53:59;;;;;;;96.13;29.87;;;;;;;;;;735098;189;895686;-69
2022/11/02 07:56:24;;;;;;;91.90;31.00;;;;;;;;;;739084;189;626044;-69
2022/11/02 07:58:49;;;;;;;85.90;27.87;;;;;;;;;;738444;189;818233;-68
2022/11/02 08:01:15;;;;;;;88.95;28.52;;;;;;;;;;741833;187;919258;-68
2022/11/02 08:03:41;;;;;;;58.80;26.77;;;;;;;;;;737257;189;919108;-68
2022/11/02 08:06:07;;;;;;;51.27;25.40;;;;;;;;;;740525;189;919326;-67
2022/11/02 08:08:33;;;;;;;72.17;26.67;;;;;;;;;;745173;189;815821;-68
2022/11/02 08:10:59;;;;;;;85.43;27.20;;;;;;;;;;735770;190;919326;-68
2022/11/02 08:13:24;;;;;;;72.80;28.47;;;;;;;;;;743081;187;821322;-68
2022/11/02 08:15:51;;;;;;;82.33;28.90;;;;;;;;;;740175;188;921975;-68
2022/11/02 08:18:17;;;;;;;96.53;30.40;;;;;;;;;;735186;189;918985;-68
2022/11/02 08:20:44;;;;;;;58.83;23.40;;;;;;;;;;738584;187;815724;-68
2022/11/02 08:23:09;;;;;;;84.23;27.53;;;;;;;;;;739854;188;900983;-68
2022/11/02 08:25:34;;;;;;;63.20;26.37;;;;;;;;;;743786;189;817092;-69
2022/11/02 08:28:00;;;;;;;89.83;28.30;;;;;;;;;;737827;189;919241;-70
2022/11/02 08:30:26;;;;;;;103.03;28.17;;;;;;;;;;738629;189;626745;-68
2022/11/02 08:32:52;;;;;;;87.93;29.40;;;;;;;;;;740870;189;919602;-68
2022/11/02 08:35:18;;;;;;;93.47;29.93;;;;;;;;;;736070;189;915209;-68
2022/11/02 08:37:44;;;;;;;109.33;27.90;;;;;;;;;;734167;190;919590;-69
2022/11/02 08:40:10;;;;;;;80.30;26.80;;;;;;;;;;741059;189;918661;-68
2022/11/02 08:42:37;;;;;;;93.37;30.53;;;;;;;;;;736338;188;918556;-67
2022/11/02 08:45:02;;;;;;;88.23;26.97;;;;;;;;;;732794;189;918905;-68
2022/11/02 08:47:28;;;;;;;57.73;24.60;;;;;;;;;;736026;189;918859;-68
2022/11/02 08:49:53;;;;;;;87.10;28.50;;;;;;;;;;746420;185;918799;-69
2022/11/02 08:52:20;;;;;;;67.70;25.67;;;;;;;;;;736273;188;920256;-68
2022/11/02 08:54:46;;;;;;;71.90;24.90;;;;;;;;;;736353;187;919644;-69
2022/11/02 08:57:11;;;;;;;55.77;22.03;;;;;;;;;;739177;190;919899;-68
2022/11/02 08:59:37;;;;;;;66.93;25.40;;;;;;;;;;737168;189;914304;-68
2022/11/02 09:02:03;;;;;;;66.83;27.53;;;;;;;;;;737988;189;813886;-68
2022/11/02 09:04:30;;;;;;;74.53;27.87;;;;;;;;;;741959;189;812332;-69
2022/11/02 09:06:56;;;;;;;59.83;27.03;;;;;;;;;;736112;190;916110;-68
2022/11/02 09:09:21;;;;;;;50.23;26.40;;;;;;;;;;737355;189;918747;-68
2022/11/02 09:11:47;;;;;;;60.17;28.77;;;;;;;;;;737817;189;918270;-67
2022/11/02 09:14:13;;;;;;;50.43;27.57;;;;;;;;;;751907;185;920128;-68
2022/11/02 09:16:39;;;;;;;65.47;32.40;;;;;;;;;;740426;188;916428;-69
2022/11/02 09:19:05;;;;;;;86.50;31.80;;;;;;;;;;741488;189;637104;-69
2022/11/02 09:21:31;;;;;;;59.17;28.27;;;;;;;;;;745812;189;638883;-69
2022/11/02 09:23:57;;;;;;;48.27;25.67;;;;;;;;;;734507;189;918856;-68
2022/11/02 09:26:23;;;;;;;53.73;28.57;;;;;;;;;;736219;189;933944;-68
2022/11/02 09:28:48;;;;;;;52.60;29.87;;;;;;;;;;743281;189;818526;-69
2022/11/02 09:31:14;;;;;;;62.63;30.50;;;;;;;;;;735910;186;921606;-68
2022/11/02 09:33:40;;;;;;;55.93;30.43;;;;;;;;;;735290;189;918861;-69
2022/11/02 09:36:06;;;;;;;59.97;30.70;;;;;;;;;;742633;188;919184;-68
2022/11/02 09:38:32;;;;;;;63.30;31.43;;;;;;;;;;735991;189;918992;-69
2022/11/02 09:41:01;;;;;;;56.53;29.10;;;;;;;;;;736391;189;919481;-68
2022/11/02 09:43:32;;;;;;;61.53;29.60;;;;;;;;;;737897;187;954408;-68
2022/11/02 09:45:58;;;;;;;53.80;28.97;;;;;;;;;;743021;189;916237;-69
2022/11/02 09:48:34;;;;;;;66.53;32.10;;;;;;;;;;734753;189;916911;-69
2022/11/02 09:51:00;;;;;;;64.22;31.52;;;;;;;;;;734652;189;920579;-69
2022/11/02 09:53:25;;;;;;;61.97;30.77;;;;;;;;;;733310;189;922735;-70
2022/11/02 09:55:51;;;;;;;70.87;32.33;;;;;;;;;;740868;189;919330;-69
2022/11/02 09:58:17;;;;;;;62.33;33.20;;;;;;;;;;735558;189;919215;-68
2022/11/02 10:00:43;;;;;;;63.53;29.50;;;;;;;;;;735026;189;923068;-70
2022/11/02 10:03:24;;;;;;;59.90;32.67;;;;;;;;;;740509;190;918603;-69
2022/11/02 10:05:53;;;;;;;54.83;29.83;;;;;;;;;;745043;188;920118;-69
2022/11/02 10:08:22;;;;;;;63.70;28.97;;;;;;;;;;746728;188;932702;-69
2022/11/02 10:10:49;;;;;;;65.50;30.30;;;;;;;;;;737703;189;918953;-69
2022/11/02 10:13:35;;;;;;;76.53;32.77;;;;;;;;;;736486;189;919101;-70
2022/11/02 10:16:05;;;;;;;59.27;30.60;;;;;;;;;;732948;188;918174;-68
2022/11/02 10:18:31;;;;;;;61.47;29.27;;;;;;;;;;738158;189;898973;-69
2022/11/02 10:20:57;;;;;;;66.53;31.50;;;;;;;;;;742154;187;814657;-69
2022/11/02 10:23:24;;;;;;;72.07;30.83;;;;;;;;;;736957;188;919373;-69
2022/11/02 10:25:50;;;;;;;63.23;28.60;;;;;;;;;;738866;189;817740;-69
2022/11/02 10:28:18;;;;;;;52.97;28.10;;;;;;;;;;743037;189;830125;-69
2022/11/02 10:30:44;;;;;;;63.63;28.10;;;;;;;;;;737331;189;876567;-68
2022/11/02 10:33:10;;;;;;;59.57;30.90;;;;;;;;;;736288;188;875846;-68
2022/11/02 10:35:36;;;;;;;61.08;32.28;;;;;;;;;;742626;188;1024946;-69
2022/11/02 10:38:05;;;;;;;60.20;30.60;;;;;;;;;;740782;188;919008;-70
2022/11/02 10:40:51;;;;;;;62.97;30.97;;;;;;;;;;734672;189;918224;-69
2022/11/02 10:43:22;;;;;;;59.37;32.03;;;;;;;;;;736374;189;919466;-70
2022/11/02 10:45:51;;;;;;;66.57;30.07;;;;;;;;;;734271;188;919183;-69
2022/11/02 10:48:22;;;;;;;59.83;29.10;;;;;;;;;;736294;189;916685;-69
2022/11/02 10:51:01;;;;;;;54.90;30.63;;;;;;;;;;751829;185;822964;-70
2022/11/02 10:53:27;;;;;;;59.57;29.40;;;;;;;;;;745921;189;920179;-70
2022/11/02 10:55:56;;;;;;;55.07;28.97;;;;;;;;;;739727;188;917861;-70
2022/11/02 10:58:22;;;;;;;53.27;29.40;;;;;;;;;;736674;189;820399;-69
2022/11/02 11:00:48;;;;;;;55.93;30.00;;;;;;;;;;740418;189;919080;-69
2022/11/02 11:03:13;;;;;;;55.27;27.33;;;;;;;;;;735272;189;919094;-69
2022/11/02 11:05:45;;;;;;;43.23;24.37;;;;;;;;;;735386;189;918576;-69
2022/11/02 11:08:11;;;;;;;47.37;28.07;;;;;;;;;;735875;189;918842;-69
2022/11/02 11:10:37;;;;;;;47.80;26.40;;;;;;;;;;740870;188;815277;-70
2022/11/02 11:13:03;;;;;;;40.10;24.33;;;;;;;;;;737655;189;816314;-69
2022/11/02 11:15:29;;;;;;;45.83;26.33;;;;;;;;;;735634;189;917038;-69
2022/11/02 11:17:54;;;;;;;47.77;23.03;;;;;;;;;;743708;189;616526;-70
2022/11/02 11:20:26;;;;;;;40.30;23.10;;;;;;;;;;735483;189;887532;-69
2022/11/02 11:23:08;;;;;;;40.37;22.20;;;;;;;;;;737148;187;915249;-69
2022/11/02 11:25:34;;;;;;;44.23;22.50;;;;;;;;;;742902;188;816373;-71
2022/11/02 11:28:00;;;;;;;40.33;22.53;;;;;;;;;;741382;188;916809;-69
2022/11/02 11:30:26;;;;;;;36.30;22.57;;;;;;;;;;743155;189;758166;-68
2022/11/02 11:32:52;;;;;;;41.57;23.97;;;;;;;;;;736903;190;876504;-70
2022/11/02 11:35:19;;;;;;;36.43;22.57;;;;;;;;;;738060;189;912262;-71
2022/11/02 11:37:48;;;;;;;44.87;23.97;;;;;;;;;;745849;186;920083;-69
2022/11/02 11:40:17;;;;;;;39.47;21.93;;;;;;;;;;742537;188;869493;-70
2022/11/02 11:42:42;;;;;;;35.43;22.03;;;;;;;;;;741152;189;918299;-70
2022/11/02 11:45:14;;;;;;;37.47;24.08;;;;;;;;;;737339;189;818745;-69
2022/11/02 11:47:40;;;;;;;34.47;21.47;;;;;;;;;;745961;188;818436;-68
2022/11/02 11:50:06;;;;;;;37.50;22.03;;;;;;;;;;737486;187;919565;-70
2022/11/02 11:52:32;;;;;;;39.33;23.23;;;;;;;;;;738442;189;918955;-68
2022/11/02 11:54:59;;;;;;;45.27;21.13;;;;;;;;;;739227;189;916317;-69
2022/11/02 11:57:26;;;;;;;37.73;22.03;;;;;;;;;;748400;186;919295;-69
2022/11/02 11:59:51;;;;;;;37.37;21.23;;;;;;;;;;739712;187;919235;-69
2022/11/02 12:02:21;;;;;;;35.97;22.03;;;;;;;;;;734510;189;919010;-68
2022/11/02 12:04:47;;;;;;;43.33;22.70;;;;;;;;;;741564;189;920165;-69
2022/11/02 12:07:15;;;;;;;35.87;22.00;;;;;;;;;;735836;189;895316;-69
2022/11/02 12:09:41;;;;;;;31.97;20.37;;;;;;;;;;735233;189;918030;-70
2022/11/02 12:12:17;;;;;;;29.90;19.40;;;;;;;;;;742022;188;916839;-69
2022/11/02 12:14:49;;;;;;;37.33;21.83;;;;;;;;;;741197;189;917831;-69
2022/11/02 12:17:17;;;;;;;34.40;21.40;;;;;;;;;;748471;188;819537;-69
2022/11/02 12:19:45;;;;;;;35.10;21.60;;;;;;;;;;739254;186;919211;-69
2022/11/02 12:22:28;;;;;;;33.10;20.60;;;;;;;;;;734040;189;926396;-69
2022/11/02 12:25:00;;;;;;;28.52;18.40;;;;;;;;;;734158;190;921209;-69
2022/11/02 12:27:32;;;;;;;32.77;20.10;;;;;;;;;;736731;189;918434;-68
2022/11/02 12:30:03;;;;;;;30.03;19.97;;;;;;;;;;740445;190;918499;-69
2022/11/02 12:32:35;;;;;;;28.80;19.33;;;;;;;;;;735927;189;915525;-69
2022/11/02 12:35:19;;;;;;;37.03;20.90;;;;;;;;;;736150;189;915857;-69
2022/11/02 12:38:01;;;;;;;33.55;19.95;;;;;;;;;;733683;190;927979;-69
2022/11/02 12:40:33;;;;;;;38.80;20.40;;;;;;;;;;732020;188;921756;-68
2022/11/02 12:43:02;;;;;;;34.43;22.30;;;;;;;;;;738835;188;928247;-68
2022/11/02 12:45:41;;;;;;;36.57;21.30;;;;;;;;;;738071;189;910422;-68
2022/11/02 12:48:09;;;;;;;31.57;19.60;;;;;;;;;;726214;192;918350;-70
2022/11/02 12:50:36;;;;;;;28.50;17.33;;;;;;;;;;706483;196;919168;-70
2022/11/02 12:53:04;;;;;;;31.10;16.67;;;;;;;;;;715644;195;817425;-71
2022/11/02 12:55:30;;;;;;;21.90;15.32;;;;;;;;;;738470;188;919091;-69
2022/11/02 12:57:59;;;;;;;26.60;17.07;;;;;;;;;;747604;189;815933;-69
2022/11/02 13:00:26;;;;;;;23.90;15.70;;;;;;;;;;741120;186;916147;-70
2022/11/02 13:02:57;;;;;;;22.40;16.00;;;;;;;;;;740440;189;917100;-69
2022/11/02 13:05:26;;;;;;;25.73;16.10;;;;;;;;;;739366;188;921737;-70
2022/11/02 13:07:56;;;;;;;25.73;17.63;;;;;;;;;;739917;189;928022;-70
2022/11/02 13:10:24;;;;;;;27.57;16.83;;;;;;;;;;735810;188;919460;-70
2022/11/02 13:12:50;;;;;;;25.97;16.87;;;;;;;;;;740229;187;919125;-69
2022/11/02 13:15:16;;;;;;;27.03;18.33;;;;;;;;;;739686;189;920268;-70
2022/11/02 13:17:43;;;;;;;30.00;19.47;;;;;;;;;;740662;190;918210;-70
2022/11/02 13:20:16;;;;;;;24.57;16.63;;;;;;;;;;736059;189;921956;-68
2022/11/02 13:22:42;;;;;;;28.00;17.00;;;;;;;;;;735534;189;916469;-69
2022/11/02 13:25:13;;;;;;;33.60;17.37;;;;;;;;;;729431;189;917671;-69
2022/11/02 13:27:40;;;;;;;24.67;17.53;;;;;;;;;;744017;190;920518;-70
2022/11/02 13:30:13;;;;;;;31.50;19.63;;;;;;;;;;742336;186;920018;-70
2022/11/02 13:32:40;;;;;;;27.97;18.30;;;;;;;;;;736484;189;828285;-70
2022/11/02 13:35:05;;;;;;;28.77;19.50;;;;;;;;;;736883;189;918527;-70
2022/11/02 13:37:33;;;;;;;31.60;18.90;;;;;;;;;;739092;189;919804;-70
2022/11/02 13:39:58;;;;;;;34.40;21.87;;;;;;;;;;738166;187;918913;-69
2022/11/02 13:42:42;;;;;;;31.57;20.60;;;;;;;;;;734165;189;918870;-69
2022/11/02 13:45:14;;;;;;;35.63;20.27;;;;;;;;;;737511;188;918700;-69
2022/11/02 13:47:55;;;;;;;27.43;18.33;;;;;;;;;;736786;188;914018;-69
2022/11/02 13:50:21;;;;;;;27.17;18.07;;;;;;;;;;736149;187;910055;-69
2022/11/02 13:52:47;;;;;;;28.27;18.55;;;;;;;;;;742387;185;918073;-69
2022/11/02 13:55:28;;;;;;;33.97;19.60;;;;;;;;;;736160;189;918113;-69
2022/11/02 13:57:55;;;;;;;40.03;21.70;;;;;;;;;;736902;189;918421;-68
2022/11/02 14:00:30;;;;;;;24.43;16.33;;;;;;;;;;737608;189;916824;-70
2022/11/02 14:03:03;;;;;;;27.08;17.60;;;;;;;;;;743705;189;918542;-70
2022/11/02 14:05:30;;;;;;;25.63;15.90;;;;;;;;;;744942;188;918738;-70
2022/11/02 14:08:08;;;;;;;26.10;16.13;;;;;;;;;;735865;187;918496;-69
2022/11/02 14:10:36;;;;;;;28.57;18.07;;;;;;;;;;736657;189;919410;-70
2022/11/02 14:13:01;;;;;;;28.90;16.90;;;;;;;;;;738531;188;928279;-71
2022/11/02 14:15:37;;;;;;;32.10;16.90;;;;;;;;;;741042;189;918415;-69
2022/11/02 14:18:12;;;;;;;26.70;17.10;;;;;;;;;;743828;188;919210;-69
2022/11/02 14:20:38;;;;;;;27.17;15.83;;;;;;;;;;738376;189;916001;-69